Time;durP1;ratioP1;P1;durP2;ratioP2;P2;SDS_P1;SDS_P2;PMS_P1;PMS_P2;Temp;Humidity;BMP_temperature;BMP_pressure;BME280_temperature;BME280_humidity;BME280_pressure;Samples;Min_cycle;Max_cycle;Signal;HPM_P1;HPM_P2
2023/04/21 00:01:30;;;;;;;10.02;8.00;;;6.60;88.60;;;;;;5073565;28;20033;-57
2023/04/21 00:03:56;;;;;;;14.88;9.43;;;6.60;90.40;;;;;;5074204;28;20061;-55
2023/04/21 00:06:22;;;;;;;10.38;8.65;;;6.50;91.30;;;;;;5073928;28;20106;-56
2023/04/21 00:08:51;;;;;;;12.02;9.27;;;6.50;92.40;;;;;;5074122;28;20104;-56
2023/04/21 00:11:17;;;;;;;14.32;8.63;;;6.50;91.60;;;;;;5073862;28;20031;-55
2023/04/21 00:13:43;;;;;;;11.13;7.85;;;6.40;91.60;;;;;;5074041;28;20032;-56
2023/04/21 00:16:08;;;;;;;10.30;9.10;;;6.30;90.70;;;;;;5073823;28;20020;-56
2023/04/21 00:18:34;;;;;;;9.63;8.18;;;6.20;90.60;;;;;;5073945;28;20033;-57
2023/04/21 00:20:59;;;;;;;12.10;8.50;;;6.10;91.10;;;;;;5073901;28;20395;-56
2023/04/21 00:23:25;;;;;;;10.07;7.90;;;6.10;91.20;;;;;;5073593;28;20028;-55
2023/04/21 00:25:51;;;;;;;12.75;8.35;;;6.00;91.60;;;;;;5073739;28;20099;-55
2023/04/21 00:28:17;;;;;;;10.18;8.23;;;5.90;91.90;;;;;;5073566;28;20024;-57
2023/04/21 00:30:43;;;;;;;13.63;8.88;;;5.90;93.10;;;;;;5073630;28;20027;-54
2023/04/21 00:33:08;;;;;;;16.45;9.02;;;5.80;93.70;;;;;;5073271;28;20032;-58
2023/04/21 00:35:34;;;;;;;14.02;9.00;;;5.80;94.00;;;;;;5073660;28;20024;-55
2023/04/21 00:38:00;;;;;;;12.95;8.45;;;5.80;95.40;;;;;;5073599;28;20025;-53
2023/04/21 00:40:26;;;;;;;11.18;9.00;;;5.80;94.10;;;;;;5072370;28;20111;-55
2023/04/21 00:42:51;;;;;;;10.43;8.10;;;5.60;93.20;;;;;;5073363;28;20039;-56
2023/04/21 00:45:17;;;;;;;10.30;8.27;;;5.60;94.90;;;;;;5073218;28;20356;-58
2023/04/21 00:47:43;;;;;;;12.18;8.27;;;5.60;95.30;;;;;;5073486;28;20024;-57
2023/04/21 00:50:09;;;;;;;10.25;8.73;;;5.60;94.90;;;;;;5073186;28;20031;-56
2023/04/21 00:52:36;;;;;;;10.23;8.15;;;5.60;95.20;;;;;;5073243;28;20056;-55
2023/04/21 00:55:03;;;;;;;15.13;8.32;;;5.60;95.20;;;;;;5073109;28;20115;-56
2023/04/21 00:57:30;;;;;;;14.55;9.20;;;5.50;94.60;;;;;;5072956;28;20024;-56
2023/04/21 00:59:56;;;;;;;13.23;10.05;;;5.50;94.30;;;;;;5072878;28;20044;-57
2023/04/21 01:02:22;;;;;;;9.65;8.18;;;5.40;93.50;;;;;;5072864;28;20047;-55
2023/04/21 01:04:48;;;;;;;8.75;7.85;;;5.40;94.70;;;;;;5071756;28;20456;-52
2023/04/21 01:07:14;;;;;;;11.40;8.80;;;5.30;94.40;;;;;;5072831;28;20036;-55
2023/04/21 01:09:39;;;;;;;13.05;9.05;;;5.30;94.60;;;;;;5072822;28;20012;-56
2023/04/21 01:12:09;;;;;;;12.07;8.32;;;5.20;93.90;;;;;;5072808;28;20029;-56
2023/04/21 01:14:37;;;;;;;14.52;9.18;;;5.10;95.40;;;;;;5072831;28;20371;-58
2023/04/21 01:17:04;;;;;;;13.43;8.45;;;5.10;95.40;;;;;;5071507;28;20035;-54
2023/04/21 01:19:34;;;;;;;9.57;8.07;;;5.10;95.60;;;;;;5072666;28;20020;-55
2023/04/21 01:22:00;;;;;;;8.82;7.90;;;5.00;95.40;;;;;;5072592;28;20029;-56
2023/04/21 01:24:44;;;;;;;11.93;8.88;;;5.00;95.20;;;;;;5072180;28;20012;-56
2023/04/21 01:27:12;;;;;;;12.38;10.32;;;5.00;95.20;;;;;;5071088;28;20032;-56
2023/04/21 01:29:40;;;;;;;17.65;9.18;;;5.00;94.80;;;;;;5072513;28;20171;-58
2023/04/21 01:32:09;;;;;;;13.80;10.18;;;4.90;95.40;;;;;;5072456;28;20074;-57
2023/04/21 01:34:35;;;;;;;10.18;8.27;;;4.90;95.80;;;;;;5072473;28;20043;-57
2023/04/21 01:37:00;;;;;;;12.45;9.82;;;4.90;95.90;;;;;;5071055;28;20033;-53
2023/04/21 01:39:26;;;;;;;9.30;7.88;;;4.80;95.80;;;;;;5072138;28;20094;-57
2023/04/21 01:41:54;;;;;;;8.82;7.28;;;4.80;95.60;;;;;;5072215;28;20017;-57
2023/04/21 01:44:20;;;;;;;10.75;9.13;;;4.70;93.70;;;;;;5072037;28;20035;-56
2023/04/21 01:46:45;;;;;;;9.35;8.25;;;4.60;94.10;;;;;;5072213;28;20028;-56
2023/04/21 01:49:11;;;;;;;10.43;9.13;;;4.60;95.20;;;;;;5071991;28;20468;-56
2023/04/21 01:51:37;;;;;;;11.90;10.10;;;4.50;95.80;;;;;;5071948;28;20029;-55
2023/04/21 01:54:02;;;;;;;15.23;10.32;;;4.40;97.10;;;;;;5072136;28;20017;-58
2023/04/21 01:56:28;;;;;;;15.77;12.65;;;4.40;97.80;;;;;;5071867;28;20037;-54
2023/04/21 01:58:54;;;;;;;13.98;11.95;;;4.40;98.60;;;;;;5071961;28;20028;-52
2023/04/21 02:01:19;;;;;;;14.82;11.38;;;4.50;99.40;;;;;;5070536;28;20024;-53
2023/04/21 02:03:45;;;;;;;20.38;13.30;;;4.40;98.60;;;;;;5071903;28;20483;-56
2023/04/21 02:06:12;;;;;;;19.95;11.57;;;4.40;98.60;;;;;;5071699;28;20031;-57
2023/04/21 02:08:38;;;;;;;14.45;11.25;;;4.40;98.60;;;;;;5071917;28;20021;-51
2023/04/21 02:11:04;;;;;;;15.40;11.63;;;4.40;98.80;;;;;;5071923;28;20013;-55
2023/04/21 02:13:29;;;;;;;17.77;12.05;;;4.40;98.30;;;;;;5071703;28;20028;-52
2023/04/21 02:15:55;;;;;;;12.98;10.40;;;4.30;97.50;;;;;;5071712;28;20368;-55
2023/04/21 02:18:20;;;;;;;15.45;9.98;;;4.30;97.60;;;;;;5070369;28;20020;-54
2023/04/21 02:20:46;;;;;;;11.85;10.38;;;4.20;97.30;;;;;;5071619;28;20041;-55
2023/04/21 02:23:12;;;;;;;10.88;9.35;;;4.20;96.90;;;;;;5071431;28;20066;-52
2023/04/21 02:25:37;;;;;;;12.70;9.98;;;4.10;96.90;;;;;;5070335;28;20024;-56
2023/04/21 02:28:03;;;;;;;14.02;11.73;;;4.10;96.80;;;;;;5071791;28;20490;-53
2023/04/21 02:30:29;;;;;;;12.73;10.05;;;4.10;97.50;;;;;;5071630;28;20009;-51
2023/04/21 02:32:54;;;;;;;12.27;10.13;;;4.00;97.40;;;;;;5070262;28;20029;-56
2023/04/21 02:35:20;;;;;;;15.15;11.20;;;4.00;97.40;;;;;;5071285;28;20025;-57
2023/04/21 02:37:46;;;;;;;14.13;11.02;;;3.90;97.30;;;;;;5071548;28;20032;-53
2023/04/21 02:40:11;;;;;;;13.48;11.10;;;3.90;97.70;;;;;;5071421;28;20367;-53
2023/04/21 02:42:37;;;;;;;16.42;11.23;;;3.90;98.10;;;;;;5071508;28;20024;-55
2023/04/21 02:45:03;;;;;;;14.55;11.68;;;3.90;98.50;;;;;;5071553;28;20024;-57
2023/04/21 02:47:29;;;;;;;15.93;11.50;;;4.00;98.60;;;;;;5071361;28;20016;-55
2023/04/21 02:49:54;;;;;;;16.02;11.00;;;4.00;98.70;;;;;;5071347;28;20066;-53
2023/04/21 02:52:20;;;;;;;12.70;10.73;;;4.00;98.30;;;;;;5069894;28;20364;-53
2023/04/21 02:54:45;;;;;;;16.90;10.52;;;4.00;97.50;;;;;;5071390;28;20036;-54
2023/04/21 02:57:11;;;;;;;12.55;10.43;;;3.90;97.10;;;;;;5071295;28;20029;-54
2023/04/21 02:59:37;;;;;;;14.25;11.77;;;3.90;97.10;;;;;;5071186;28;20400;-53
2023/04/21 03:02:02;;;;;;;15.05;9.95;;;4.00;97.70;;;;;;5071629;28;20119;-52
2023/04/21 03:04:28;;;;;;;13.27;10.07;;;3.90;96.80;;;;;;5074892;28;20062;-58
2023/04/21 03:06:54;;;;;;;14.35;9.93;;;3.90;96.10;;;;;;5075258;28;20016;-57
2023/04/21 03:09:20;;;;;;;12.82;10.50;;;3.80;96.10;;;;;;5075105;28;20066;-57
2023/04/21 03:11:45;;;;;;;13.70;10.95;;;3.80;96.60;;;;;;5074726;28;20020;-54
2023/04/21 03:14:11;;;;;;;15.20;10.35;;;3.70;96.40;;;;;;5072560;28;20484;-55
2023/04/21 03:16:37;;;;;;;15.18;10.73;;;3.70;96.60;;;;;;5073957;28;20020;-54
2023/04/21 03:19:02;;;;;;;15.55;9.95;;;3.60;96.50;;;;;;5073767;28;20028;-53
2023/04/21 03:21:28;;;;;;;12.68;9.48;;;3.50;96.20;;;;;;5073560;28;20025;-66
2023/04/21 03:23:53;;;;;;;12.40;9.77;;;3.50;96.40;;;;;;5074803;28;20470;-55
2023/04/21 03:26:19;;;;;;;14.02;10.40;;;3.50;96.90;;;;;;5073712;28;20519;-53
2023/04/21 03:28:45;;;;;;;12.32;9.90;;;3.50;96.50;;;;;;5072766;28;20111;-54
2023/04/21 03:31:10;;;;;;;13.05;9.23;;;3.50;96.60;;;;;;5073756;28;20031;-54
2023/04/21 03:33:36;;;;;;;13.32;10.55;;;3.50;96.60;;;;;;5072682;28;20063;-57
2023/04/21 03:36:02;;;;;;;15.30;10.88;;;3.50;96.40;;;;;;5074738;28;20547;-55
2023/04/21 03:38:28;;;;;;;12.05;10.55;;;3.40;96.30;;;;;;5074515;28;20502;-55
2023/04/21 03:40:54;;;;;;;11.65;9.68;;;3.40;97.00;;;;;;5074644;28;20025;-57
2023/04/21 03:43:20;;;;;;;11.93;10.32;;;3.50;97.30;;;;;;5074291;28;20351;-55
2023/04/21 03:45:45;;;;;;;13.98;10.38;;;3.50;97.30;;;;;;5074559;28;20025;-56
2023/04/21 03:48:11;;;;;;;12.05;10.00;;;3.50;97.30;;;;;;5072884;28;20043;-53
2023/04/21 03:51:11;;;;;;;12.85;9.32;;;3.50;97.00;;;;;;5074402;28;20456;-55
2023/04/21 03:53:36;;;;;;;14.70;9.32;;;3.50;96.90;;;;;;5074292;28;20028;-55
2023/04/21 03:56:02;;;;;;;13.60;9.32;;;3.50;97.20;;;;;;5074321;28;20069;-55
2023/04/21 03:58:27;;;;;;;10.45;9.20;;;3.40;97.20;;;;;;5074004;28;20037;-57
2023/04/21 04:00:53;;;;;;;12.40;9.93;;;3.40;96.90;;;;;;5074275;28;20016;-55
2023/04/21 04:03:19;;;;;;;11.82;9.23;;;3.40;97.40;;;;;;5073923;28;20033;-54
2023/04/21 04:05:44;;;;;;;10.95;9.27;;;3.40;97.60;;;;;;5074162;28;20020;-56
2023/04/21 04:08:10;;;;;;;14.18;9.85;;;3.40;97.80;;;;;;5072714;28;20078;-52
2023/04/21 04:10:36;;;;;;;11.25;8.98;;;3.40;98.00;;;;;;5074027;28;20427;-55
2023/04/21 04:13:02;;;;;;;10.68;8.38;;;3.50;97.70;;;;;;5073867;28;20513;-57
2023/04/21 04:15:27;;;;;;;11.98;9.82;;;3.50;97.70;;;;;;5072765;28;20059;-57
2023/04/21 04:17:53;;;;;;;14.30;9.82;;;3.50;97.60;;;;;;5073897;28;20032;-53
2023/04/21 04:20:19;;;;;;;12.60;9.70;;;3.50;97.80;;;;;;5073753;28;20096;-54
2023/04/21 04:22:44;;;;;;;15.25;9.95;;;3.50;97.50;;;;;;5073723;28;20112;-53
2023/04/21 04:25:11;;;;;;;11.15;8.88;;;3.60;98.10;;;;;;5073510;28;20039;-53
2023/04/21 04:27:49;;;;;;;11.32;8.90;;;3.60;98.40;;;;;;5073739;28;20009;-57
2023/04/21 04:30:15;;;;;;;15.98;8.13;;;3.60;96.80;;;;;;5073641;28;20024;-54
2023/04/21 04:32:41;;;;;;;10.27;8.07;;;3.60;96.10;;;;;;5073460;28;20096;-53
2023/04/21 04:35:08;;;;;;;9.77;8.60;;;3.60;96.60;;;;;;5073586;28;20357;-57
2023/04/21 04:37:37;;;;;;;10.25;8.63;;;3.70;97.00;;;;;;5073562;28;20384;-53
2023/04/21 04:40:05;;;;;;;11.73;9.35;;;3.80;97.60;;;;;;5073580;28;20125;-52
2023/04/21 04:42:31;;;;;;;10.77;9.38;;;3.90;97.80;;;;;;5073203;28;20021;-55
2023/04/21 04:44:58;;;;;;;15.00;8.88;;;4.00;97.60;;;;;;5073447;28;20055;-55
2023/04/21 04:47:24;;;;;;;20.20;8.88;;;4.20;96.00;;;;;;5071934;28;20025;-57
2023/04/21 04:49:50;;;;;;;16.42;8.60;;;4.20;93.60;;;;;;5073394;28;20017;-54
2023/04/21 04:52:15;;;;;;;47.53;12.07;;;4.30;94.40;;;;;;5073139;28;20357;-53
2023/04/21 04:54:41;;;;;;;261.52;21.52;;;4.40;96.00;;;;;;5072704;28;20138;-57
2023/04/21 04:57:07;;;;;;;49.58;17.30;;;4.50;98.20;;;;;;5072886;28;20590;-56
2023/04/21 04:59:32;;;;;;;139.75;83.10;;;4.60;99.90;;;;;;5073014;28;20045;-53
2023/04/21 05:01:58;;;;;;;227.05;90.35;;;4.70;99.90;;;;;;5072890;28;20059;-54
2023/04/21 05:04:24;;;;;;;182.23;39.00;;;4.80;99.90;;;;;;5069036;28;20326;-58
2023/04/21 05:06:50;;;;;;;287.95;40.65;;;4.90;99.90;;;;;;5087173;28;20535;-55
2023/04/21 05:09:16;;;;;;;275.25;43.20;;;5.00;99.90;;;;;;5074770;28;20020;-54
2023/04/21 05:11:42;;;;;;;262.52;29.88;;;5.10;99.90;;;;;;5072816;28;20025;-56
2023/04/21 05:14:07;;;;;;;158.57;23.73;;;5.10;99.90;;;;;;5075866;28;20020;-56
2023/04/21 05:16:33;;;;;;;284.35;33.90;;;5.40;99.90;;;;;;5092804;28;20103;-52
2023/04/21 05:19:03;;;;;;;137.73;28.27;;;5.40;98.70;;;;;;5092551;28;20018;-53
2023/04/21 05:21:30;;;;;;;86.68;21.98;;;5.40;97.80;;;;;;5079789;28;20111;-54
2023/04/21 05:23:56;;;;;;;65.72;17.42;;;5.60;98.70;;;;;;5071185;28;20021;-54
2023/04/21 05:26:22;;;;;;;25.23;14.75;;;5.80;98.00;;;;;;5074292;28;20110;-54
2023/04/21 05:28:48;;;;;;;114.53;15.73;;;6.10;94.40;;;;;;5072996;28;20039;-57
2023/04/21 05:31:14;;;;;;;42.42;13.70;;;6.10;90.40;;;;;;5072117;28;20025;-52
2023/04/21 05:33:39;;;;;;;15.07;13.23;;;6.20;90.90;;;;;;5071516;28;20021;-57
2023/04/21 05:36:09;;;;;;;15.70;13.38;;;6.30;90.90;;;;;;5071836;28;20036;-58
2023/04/21 05:38:35;;;;;;;21.27;13.43;;;6.40;90.00;;;;;;5070230;28;20029;-58
2023/04/21 05:41:01;;;;;;;17.35;14.25;;;6.30;86.30;;;;;;5071834;28;20024;-50
2023/04/21 05:43:27;;;;;;;14.98;12.77;;;6.30;91.50;;;;;;5080760;28;20105;-58
2023/04/21 05:45:53;;;;;;;15.95;13.55;;;6.40;92.70;;;;;;5092340;28;20028;-55
2023/04/21 05:48:19;;;;;;;22.27;13.43;;;6.40;93.00;;;;;;5092120;28;20051;-58
2023/04/21 05:50:44;;;;;;;16.30;13.63;;;6.60;92.50;;;;;;5076880;28;20028;-56
2023/04/21 05:53:10;;;;;;;14.13;12.50;;;6.70;92.50;;;;;;5071912;28;20103;-60
2023/04/21 05:55:36;;;;;;;13.80;11.07;;;6.90;90.80;;;;;;5071847;28;20028;-58
2023/04/21 05:58:03;;;;;;;16.02;12.38;;;7.20;83.70;;;;;;5072006;28;20594;-59
2023/04/21 06:00:29;;;;;;;15.95;12.40;;;7.20;82.60;;;;;;5071584;28;20078;-59
2023/04/21 06:02:56;;;;;;;15.15;11.88;;;7.30;85.00;;;;;;5071998;28;20049;-59
2023/04/21 06:05:21;;;;;;;19.42;12.75;;;7.30;83.30;;;;;;5071742;28;20027;-57
2023/04/21 06:07:47;;;;;;;15.90;12.27;;;7.20;81.40;;;;;;5071170;28;20029;-58
2023/04/21 06:10:13;;;;;;;15.55;12.77;;;7.00;89.30;;;;;;5071767;28;20052;-58
2023/04/21 06:12:39;;;;;;;14.05;12.23;;;7.30;86.60;;;;;;5071763;28;20700;-59
2023/04/21 06:15:05;;;;;;;13.35;11.52;;;7.20;83.40;;;;;;5071782;28;20116;-64
2023/04/21 06:17:31;;;;;;;14.10;11.95;;;7.20;89.60;;;;;;5071587;28;20060;-59
2023/04/21 06:19:56;;;;;;;15.25;11.27;;;7.40;89.50;;;;;;5071917;28;20079;-59
2023/04/21 06:22:23;;;;;;;14.70;13.13;;;7.50;84.00;;;;;;5071473;28;20040;-58
2023/04/21 06:24:48;;;;;;;14.27;12.50;;;7.60;83.30;;;;;;5071256;28;20597;-56
2023/04/21 06:27:15;;;;;;;13.63;11.80;;;7.70;85.40;;;;;;5071478;28;20069;-57
2023/04/21 06:29:41;;;;;;;13.20;11.80;;;7.70;84.40;;;;;;5070205;28;20016;-58
2023/04/21 06:32:07;;;;;;;12.95;10.82;;;7.80;82.00;;;;;;5071458;28;20032;-58
2023/04/21 06:34:33;;;;;;;19.33;13.88;;;7.80;81.30;;;;;;5069881;28;20035;-58
2023/04/21 06:36:58;;;;;;;15.90;12.63;;;7.70;77.10;;;;;;5067575;28;20021;-58
2023/04/21 06:39:27;;;;;;;14.30;11.85;;;7.80;83.30;;;;;;5071450;28;20025;-58
2023/04/21 06:41:53;;;;;;;13.10;10.95;;;8.00;84.20;;;;;;5070685;28;20028;-55
2023/04/21 06:44:19;;;;;;;13.45;11.05;;;8.30;75.90;;;;;;5071192;28;20035;-55
2023/04/21 06:46:46;;;;;;;16.40;11.73;;;8.50;79.00;;;;;;5071149;28;20426;-58
2023/04/21 06:49:11;;;;;;;12.52;10.48;;;8.70;69.60;;;;;;5071063;28;20070;-57
2023/04/21 06:51:37;;;;;;;16.30;13.00;;;8.70;54.50;;;;;;5071031;28;20021;-59
2023/04/21 06:54:03;;;;;;;12.90;9.07;;;8.70;71.30;;;;;;5071212;28;20036;-59
2023/04/21 06:56:29;;;;;;;12.23;10.43;;;8.90;69.00;;;;;;5071019;28;20048;-54
2023/04/21 06:58:55;;;;;;;17.02;10.50;;;9.20;64.00;;;;;;5072405;28;20040;-58
2023/04/21 07:01:23;;;;;;;12.45;10.48;;;9.30;60.50;;;;;;5071049;28;20391;-57
2023/04/21 07:03:49;;;;;;;13.68;9.50;;;9.50;61.60;;;;;;5071263;28;20035;-55
2023/04/21 07:06:15;;;;;;;23.45;14.30;;;9.70;51.40;;;;;;5070967;28;20032;-58
2023/04/21 07:08:40;;;;;;;10.73;8.38;;;9.80;45.50;;;;;;5070880;28;20017;-59
2023/04/21 07:11:06;;;;;;;10.90;8.10;;;9.90;21.10;;;;;;5071137;28;20020;-57
2023/04/21 07:13:31;;;;;;;11.25;9.43;;;10.10;34.40;;;;;;5069675;28;20499;-57
2023/04/21 07:15:57;;;;;;;10.48;8.05;;;10.30;33.30;;;;;;5070690;28;20086;-66
2023/04/21 07:18:23;;;;;;;11.15;8.25;;;10.30;11.60;;;;;;5070892;28;20074;-56
2023/04/21 07:20:49;;;;;;;9.57;8.15;;;10.40;1.50;;;;;;5071418;28;20032;-55
2023/04/21 07:23:15;;;;;;;13.07;8.63;;;10.40;4.50;;;;;;5069495;28;20051;-57
2023/04/21 07:25:40;;;;;;;16.70;11.82;;;10.40;1.00;;;;;;5071054;28;20060;-57
2023/04/21 07:28:06;;;;;;;20.65;14.45;;;10.50;1.00;;;;;;5071815;28;20025;-59
2023/04/21 07:30:32;;;;;;;10.80;9.13;;;10.50;5.70;;;;;;5070991;28;20017;-58
2023/04/21 07:32:58;;;;;;;20.10;12.70;;;10.60;13.10;;;;;;5070463;28;20044;-57
2023/04/21 07:35:24;;;;;;;12.70;9.27;;;10.60;1.70;;;;;;5070737;28;20681;-56
2023/04/21 07:37:50;;;;;;;12.15;8.02;;;10.60;29.80;;;;;;5071001;28;20567;-56
2023/04/21 07:40:15;;;;;;;11.43;7.15;;;10.70;4.50;;;;;;5070516;28;20028;-55
2023/04/21 07:42:41;;;;;;;8.60;7.72;;;10.70;99.90;;;;;;5070810;28;20494;-57
2023/04/21 07:45:07;;;;;;;13.63;9.18;;;10.80;99.90;;;;;;5070899;28;20547;-58
2023/04/21 07:47:33;;;;;;;16.40;8.05;;;10.80;99.90;;;;;;5069393;28;20025;-58
2023/04/21 07:49:59;;;;;;;9.90;7.63;;;10.80;99.90;;;;;;5073472;28;20426;-56
2023/04/21 07:52:24;;;;;;;9.65;8.55;;;10.80;99.90;;;;;;5074276;28;20033;-58
2023/04/21 07:54:50;;;;;;;10.45;7.60;;;10.90;99.90;;;;;;5074013;28;20384;-59
2023/04/21 07:57:16;;;;;;;10.13;8.70;;;11.10;99.90;;;;;;5074277;28;20024;-57
2023/04/21 07:59:41;;;;;;;9.13;6.68;;;11.20;99.90;;;;;;5090608;28;20044;-56
2023/04/21 08:02:07;;;;;;;8.63;7.28;;;11.20;99.90;;;;;;5094331;28;20027;-59
2023/04/21 08:04:33;;;;;;;10.10;8.45;;;11.40;99.90;;;;;;5094318;28;20360;-58
2023/04/21 08:06:59;;;;;;;8.88;7.43;;;11.40;99.90;;;;;;5081616;28;20035;-58
2023/04/21 08:09:25;;;;;;;8.30;7.13;;;11.60;99.90;;;;;;5073922;28;20147;-56
2023/04/21 08:11:51;;;;;;;8.65;7.22;;;11.60;99.90;;;;;;5072620;28;20158;-57
2023/04/21 08:14:17;;;;;;;8.32;6.82;;;11.70;99.90;;;;;;5072455;28;20108;-55
2023/04/21 08:16:42;;;;;;;15.05;8.95;;;11.80;99.90;;;;;;5072612;28;20055;-54
2023/04/21 08:19:08;;;;;;;10.80;7.30;;;11.90;99.90;;;;;;5073901;28;20031;-59
2023/04/21 08:21:34;;;;;;;10.30;6.75;;;11.80;99.90;;;;;;5073933;28;20032;-57
2023/04/21 08:24:00;;;;;;;10.07;8.18;;;11.80;99.90;;;;;;5073182;28;20150;-57
2023/04/21 08:26:28;;;;;;;14.75;10.15;;;12.10;99.90;;;;;;5073667;28;20123;-56
2023/04/21 08:28:55;;;;;;;16.50;11.60;;;12.10;99.90;;;;;;5073739;28;20159;-57
2023/04/21 08:31:21;;;;;;;18.45;8.98;;;12.30;99.90;;;;;;5073522;28;20017;-57
2023/04/21 08:33:47;;;;;;;14.57;8.05;;;12.40;99.90;;;;;;5073386;28;20077;-58
2023/04/21 08:36:13;;;;;;;10.05;7.63;;;12.50;99.90;;;;;;5072273;28;20123;-58
2023/04/21 08:38:41;;;;;;;18.90;13.25;;;12.50;99.90;;;;;;5073227;28;20035;-59
2023/04/21 08:41:08;;;;;;;16.88;9.95;;;12.50;99.90;;;;;;5072901;28;20166;-60
2023/04/21 08:43:33;;;;;;;11.32;9.02;;;12.60;99.90;;;;;;5073249;28;20397;-60
2023/04/21 08:46:01;;;;;;;11.57;9.23;;;12.80;99.90;;;;;;5072153;28;20162;-56
2023/04/21 08:48:28;;;;;;;15.85;11.35;;;12.80;99.90;;;;;;5071920;28;20037;-59
2023/04/21 08:50:54;;;;;;;12.00;9.75;;;12.80;99.90;;;;;;5073328;28;20043;-58
2023/04/21 08:53:20;;;;;;;10.65;8.95;;;13.00;99.90;;;;;;5073019;28;20017;-58
2023/04/21 08:55:51;;;;;;;18.38;8.82;;;13.20;99.90;;;;;;5073133;28;20604;-58
2023/04/21 08:58:17;;;;;;;11.13;9.07;;;13.50;99.90;;;;;;5071063;28;20029;-58
2023/04/21 09:00:43;;;;;;;17.40;11.70;;;13.60;99.90;;;;;;5072166;28;20558;-60
2023/04/21 09:03:09;;;;;;;12.82;9.77;;;13.70;99.90;;;;;;5073033;28;20496;-60
2023/04/21 09:05:36;;;;;;;20.25;11.57;;;13.90;99.90;;;;;;5072911;28;20021;-59
2023/04/21 09:08:13;;;;;;;13.63;9.63;;;14.10;99.90;;;;;;5072931;28;20070;-60
2023/04/21 09:10:47;;;;;;;11.05;9.95;;;14.20;99.90;;;;;;5072754;28;20078;-58
2023/04/21 09:13:12;;;;;;;;;;;14.30;99.90;;;;;;5073167;28;20025;-58
2023/04/21 09:15:43;;;;;;;10.52;9.00;;;14.50;99.90;;;;;;5072246;28;19982;-59
2023/04/21 09:18:34;;;;;;;11.20;10.05;;;14.60;99.90;;;;;;5072652;28;20063;-59
2023/04/21 09:21:08;;;;;;;13.32;8.57;;;14.60;99.90;;;;;;5072751;28;20077;-59
2023/04/21 09:23:43;;;;;;;10.32;8.48;;;14.90;99.90;;;;;;5071594;28;20109;-59
2023/04/21 09:26:09;;;;;;;12.65;8.95;;;15.20;99.90;;;;;;5072569;28;20470;-59
2023/04/21 09:28:35;;;;;;;15.60;8.32;;;15.40;99.90;;;;;;5072526;28;20025;-59
2023/04/21 09:31:01;;;;;;;10.60;8.98;;;15.50;99.90;;;;;;5072189;28;20103;-60
2023/04/21 09:33:27;;;;;;;11.48;9.38;;;15.60;99.90;;;;;;5071985;28;20035;-56
2023/04/21 09:35:52;;;;;;;13.70;8.75;;;15.70;99.90;;;;;;5072484;28;20017;-60
2023/04/21 09:38:21;;;;;;;11.10;8.48;;;15.80;99.90;;;;;;5070903;28;20021;-60
2023/04/21 09:40:58;;;;;;;10.98;7.93;;;16.00;99.90;;;;;;5072381;28;20020;-59
2023/04/21 09:43:24;;;;;;;17.73;7.78;;;16.10;99.90;;;;;;5070566;28;20025;-58
2023/04/21 09:45:50;;;;;;;12.52;7.65;;;16.20;99.60;;;;;;5071683;28;20111;-58
2023/04/21 09:48:17;;;;;;;11.85;8.40;;;16.40;99.90;;;;;;5071797;28;20124;-60
2023/04/21 09:50:45;;;;;;;12.70;7.10;;;16.80;99.90;;;;;;5072087;28;20017;-60
2023/04/21 09:53:20;;;;;;;13.02;7.55;;;16.90;99.40;;;;;;5071959;28;20025;-59
2023/04/21 09:55:48;;;;;;;8.15;7.00;;;16.90;98.80;;;;;;5071829;28;20021;-60
2023/04/21 09:58:18;;;;;;;8.50;6.53;;;17.10;99.50;;;;;;5071872;28;20052;-59
2023/04/21 10:00:45;;;;;;;10.73;6.63;;;17.30;99.80;;;;;;5071427;28;20127;-59
2023/04/21 10:03:13;;;;;;;9.57;5.70;;;17.50;98.10;;;;;;5071252;28;20060;-59
2023/04/21 10:05:39;;;;;;;8.40;6.53;;;17.70;98.80;;;;;;5071760;28;20020;-59
2023/04/21 10:08:06;;;;;;;7.43;5.97;;;17.60;94.50;;;;;;5071815;28;20028;-59
2023/04/21 10:10:34;;;;;;;6.82;4.93;;;18.10;97.90;;;;;;5071827;28;20024;-60
2023/04/21 10:13:01;;;;;;;5.80;5.13;;;18.20;95.20;;;;;;5071384;28;20040;-59
2023/04/21 10:15:36;;;;;;;6.68;5.63;;;18.50;95.10;;;;;;5071652;28;20028;-59
2023/04/21 10:18:15;;;;;;;7.43;4.65;;;18.70;95.60;;;;;;5071612;28;20031;-60
2023/04/21 10:20:53;;;;;;;7.15;4.93;;;18.80;95.70;;;;;;5070352;28;20089;-60
2023/04/21 10:23:31;;;;;;;6.05;5.22;;;18.70;93.80;;;;;;5071672;28;20027;-60
2023/04/21 10:26:16;;;;;;;10.00;6.13;;;18.90;93.70;;;;;;5070456;28;20050;-59
2023/04/21 10:29:05;;;;;;;5.43;4.28;;;18.80;92.50;;;;;;5071419;28;20027;-60
2023/04/21 10:31:31;;;;;;;5.72;4.88;;;18.80;92.00;;;;;;5071613;28;20025;-59
2023/04/21 10:34:06;;;;;;;7.70;4.60;;;19.00;91.80;;;;;;5071609;28;20028;-60
2023/04/21 10:36:47;;;;;;;6.30;4.47;;;19.00;92.30;;;;;;5071415;28;20059;-59
2023/04/21 10:39:36;;;;;;;8.13;4.65;;;19.30;92.20;;;;;;5071551;28;20021;-59
2023/04/21 10:42:23;;;;;;;7.25;4.70;;;19.60;91.00;;;;;;5071442;28;20090;-59
2023/04/21 10:44:57;;;;;;;4.70;3.97;;;19.30;89.20;;;;;;5071315;28;20016;-60
2023/04/21 10:47:28;;;;;;;4.70;4.25;;;19.60;90.90;;;;;;5070919;28;20047;-59
2023/04/21 10:49:56;;;;;;;6.18;4.13;;;19.90;90.50;;;;;;5071530;28;20016;-61
2023/04/21 10:52:33;;;;;;;9.43;4.43;;;20.20;90.60;;;;;;5071306;28;20024;-60
2023/04/21 10:54:59;;;;;;;6.05;4.00;;;20.20;91.20;;;;;;5071318;28;20028;-60
2023/04/21 10:57:25;;;;;;;3.80;3.40;;;20.60;85.50;;;;;;5070171;28;20039;-61
2023/04/21 10:59:51;;;;;;;5.57;3.85;;;20.40;83.50;;;;;;5070042;28;20544;-60
2023/04/21 11:02:17;;;;;;;8.98;3.80;;;20.50;85.40;;;;;;5070059;28;20044;-60
2023/04/21 11:04:46;;;;;;;5.30;4.35;;;20.70;82.10;;;;;;5069917;28;20025;-60
2023/04/21 11:07:24;;;;;;;8.40;4.80;;;20.70;81.00;;;;;;5070792;28;20627;-60
2023/04/21 11:10:05;;;;;;;18.17;3.92;;;20.70;78.90;;;;;;5070389;28;20023;-62
2023/04/21 11:12:33;;;;;;;8.27;3.80;;;20.90;82.70;;;;;;5070256;28;20063;-62
2023/04/21 11:15:01;;;;;;;6.50;4.28;;;20.80;80.90;;;;;;5070315;28;20021;-59
2023/04/21 11:17:27;;;;;;;4.68;4.18;;;20.90;80.90;;;;;;5069958;28;20363;-60
2023/04/21 11:19:55;;;;;;;4.95;3.72;;;21.30;80.10;;;;;;5070498;28;20024;-60
2023/04/21 11:22:23;;;;;;;5.80;4.57;;;21.70;82.00;;;;;;5070403;28;20052;-60
2023/04/21 11:24:53;;;;;;;4.53;3.85;;;21.60;80.90;;;;;;5074026;28;20017;-60
2023/04/21 11:27:18;;;;;;;4.80;3.83;;;21.70;78.40;;;;;;5074467;28;20027;-60
2023/04/21 11:29:48;;;;;;;4.30;3.30;;;22.00;76.60;;;;;;5073344;28;20555;-60
2023/04/21 11:32:15;;;;;;;3.50;2.75;;;22.40;76.90;;;;;;5074554;28;20539;-60
2023/04/21 11:34:41;;;;;;;6.97;3.10;;;23.10;70.80;;;;;;5074566;28;20017;-60
2023/04/21 11:37:09;;;;;;;4.30;3.13;;;23.50;70.50;;;;;;5074477;28;20107;-59
2023/04/21 11:39:34;;;;;;;4.15;2.85;;;23.90;67.60;;;;;;5074602;28;20479;-60
2023/04/21 11:42:01;;;;;;;3.35;2.65;;;24.10;62.90;;;;;;5074481;28;20017;-59
2023/04/21 11:44:44;;;;;;;4.15;3.13;;;24.30;65.90;;;;;;5074443;28;20398;-60
2023/04/21 11:47:18;;;;;;;4.45;3.22;;;23.50;64.10;;;;;;5074169;28;20033;-60
2023/04/21 11:49:55;;;;;;;3.70;3.30;;;23.50;62.20;;;;;;5074156;28;20024;-60
2023/04/21 11:52:36;;;;;;;3.90;2.97;;;24.00;62.10;;;;;;5074030;28;20473;-60
2023/04/21 11:55:10;;;;;;;3.80;3.10;;;24.20;61.50;;;;;;5074086;28;20031;-60
2023/04/21 11:57:38;;;;;;;5.72;3.08;;;23.50;57.50;;;;;;5074125;28;20128;-60
2023/04/21 12:00:05;;;;;;;4.93;2.78;;;23.00;60.10;;;;;;5074074;28;20472;-60
2023/04/21 12:02:32;;;;;;;4.72;2.75;;;23.30;62.00;;;;;;5073760;28;20041;-58
2023/04/21 12:05:03;;;;;;;6.78;3.15;;;23.50;62.20;;;;;;5074158;28;20448;-57
2023/04/21 12:07:40;;;;;;;4.18;3.38;;;23.30;58.40;;;;;;5073747;28;20013;-58
2023/04/21 12:10:11;;;;;;;4.65;2.97;;;23.00;61.90;;;;;;5073930;28;20028;-57
2023/04/21 12:12:41;;;;;;;3.30;2.75;;;23.20;59.30;;;;;;5073972;28;20107;-57
2023/04/21 12:15:08;;;;;;;5.10;2.63;;;23.00;59.00;;;;;;5073913;28;20066;-57
2023/04/21 12:17:38;;;;;;;7.03;3.75;;;22.80;60.30;;;;;;5073796;28;20075;-57
2023/04/21 12:20:06;;;;;;;5.70;2.88;;;22.30;60.00;;;;;;5074089;28;20020;-57
2023/04/21 12:22:32;;;;;;;4.28;3.05;;;22.80;60.00;;;;;;5073396;28;20040;-57
2023/04/21 12:24:57;;;;;;;3.47;2.78;;;23.00;59.90;;;;;;5072411;28;20021;-57
2023/04/21 12:27:23;;;;;;;3.38;2.97;;;23.30;58.30;;;;;;5073519;28;20021;-58
2023/04/21 12:29:49;;;;;;;6.65;2.63;;;23.90;58.90;;;;;;5073642;28;20103;-57
2023/04/21 12:32:14;;;;;;;7.93;2.90;;;25.20;57.60;;;;;;5073503;28;20447;-57
2023/04/21 12:34:40;;;;;;;3.90;2.10;;;26.90;54.80;;;;;;5071235;28;20043;-58
2023/04/21 12:37:06;;;;;;;5.50;3.17;;;26.80;52.30;;;;;;5073413;28;20034;-55
2023/04/21 12:39:32;;;;;;;6.13;2.13;;;27.10;51.90;;;;;;5073341;28;20043;-58
2023/04/21 12:41:58;;;;;;;4.03;2.33;;;27.30;50.40;;;;;;5073556;28;20031;-58
2023/04/21 12:44:25;;;;;;;2.75;2.00;;;27.80;49.80;;;;;;5073280;28;20024;-58